createdAt,value
2023-01-07T00:01:51.426Z,100660.91
2023-01-07T00:06:54.555Z,100655.03
2023-01-07T00:11:56.608Z,100652.19
2023-01-07T00:16:58.685Z,100653.72
2023-01-07T00:22:00.805Z,100653.28
2023-01-07T00:27:02.990Z,100656.06
2023-01-07T00:32:05.346Z,100646.13
2023-01-07T00:37:26.331Z,100645.22
2023-01-07T00:42:47.253Z,100643.88
2023-01-07T00:47:53.491Z,100643.75
2023-01-07T00:52:56.375Z,100636.00
2023-01-07T00:57:58.815Z,100632.06
2023-01-07T01:03:01.673Z,100636.34
2023-01-07T01:08:04.021Z,100627.19
2023-01-07T01:13:06.223Z,100613.41
2023-01-07T01:18:08.379Z,100623.63
2023-01-07T01:23:10.600Z,100612.16
2023-01-07T01:28:12.913Z,100609.03
2023-01-07T01:33:15.581Z,100614.09
2023-01-07T01:38:18.511Z,100609.59
2023-01-07T01:43:30.000Z,100620.91
2023-01-07T01:48:34.155Z,100613.69
2023-01-07T01:53:36.698Z,100612.09
2023-01-07T01:59:00.243Z,100614.19
2023-01-07T02:04:10.412Z,100607.56
2023-01-07T02:09:13.444Z,100601.19
2023-01-07T02:14:44.575Z,100596.75
2023-01-07T02:20:34.693Z,100595.16
2023-01-07T02:26:05.833Z,100585.94
2023-01-07T02:31:22.750Z,100588.13
2023-01-07T02:36:39.739Z,100589.22
2023-01-07T02:41:56.886Z,100595.78
2023-01-07T02:47:17.463Z,100589.44
2023-01-07T02:52:28.284Z,100581.59
2023-01-07T02:58:07.977Z,100577.75
2023-01-07T03:03:13.317Z,100571.72
2023-01-07T03:08:29.290Z,100567.34
2023-01-07T03:13:43.056Z,100564.91
2023-01-07T03:18:56.602Z,100563.81
2023-01-07T03:23:58.823Z,100547.94
2023-01-07T03:29:02.170Z,100550.00
2023-01-07T03:34:09.415Z,100547.88
2023-01-07T03:39:12.598Z,100534.94
2023-01-07T03:44:15.850Z,100537.81
2023-01-07T03:49:18.177Z,100538.72
2023-01-07T03:54:21.594Z,100520.81
2023-01-07T03:59:23.789Z,100521.78
2023-01-07T04:04:26.077Z,100516.47
2023-01-07T04:09:28.619Z,100506.81
2023-01-07T04:14:31.305Z,100491.88
2023-01-07T04:19:34.701Z,100495.44
2023-01-07T04:24:37.001Z,100487.00
2023-01-07T04:29:39.599Z,100476.31
2023-01-07T04:34:42.357Z,100480.13
2023-01-07T04:39:45.029Z,100475.66
2023-01-07T04:44:48.027Z,100483.81
2023-01-07T04:49:50.292Z,100476.25
2023-01-07T04:54:53.085Z,100473.41
2023-01-07T04:59:55.505Z,100465.66
2023-01-07T05:04:57.870Z,100450.09
2023-01-07T05:10:01.192Z,100458.59
2023-01-07T05:15:06.682Z,100438.66
2023-01-07T05:20:11.752Z,100435.03
2023-01-07T05:25:15.082Z,100432.31
2023-01-07T05:30:17.532Z,100433.84
2023-01-07T05:35:20.758Z,100430.88
2023-01-07T05:40:22.993Z,100424.38
2023-01-07T05:45:25.246Z,100429.03
2023-01-07T05:50:27.514Z,100424.13
2023-01-07T05:55:29.669Z,100426.19
2023-01-07T06:00:31.964Z,100420.31
2023-01-07T06:05:34.077Z,100422.56
2023-01-07T06:10:36.512Z,100411.09
2023-01-07T06:15:38.724Z,100409.53
2023-01-07T06:20:41.856Z,100406.53
2023-01-07T06:25:43.899Z,100405.00
2023-01-07T06:30:46.864Z,100395.50
2023-01-07T06:35:49.015Z,100399.63
2023-01-07T06:40:51.318Z,100388.16
2023-01-07T06:45:54.081Z,100381.75
2023-01-07T06:50:56.442Z,100381.88
2023-01-07T06:55:58.574Z,100378.88
2023-01-07T07:01:06.083Z,100376.97
2023-01-07T07:06:08.294Z,100381.72
2023-01-07T07:11:10.473Z,100369.50
2023-01-07T07:16:12.609Z,100361.78
2023-01-07T07:21:14.729Z,100360.00
2023-01-07T07:26:17.111Z,100360.09
2023-01-07T07:31:19.195Z,100353.31
2023-01-07T07:36:21.251Z,100349.44
2023-01-07T07:41:23.933Z,100340.72
2023-01-07T07:46:26.047Z,100342.75
2023-01-07T07:51:28.833Z,100331.66
2023-01-07T07:56:30.893Z,100330.81
2023-01-07T08:01:33.936Z,100322.31
2023-01-07T08:06:37.389Z,100323.84
2023-01-07T08:11:39.525Z,100313.56
2023-01-07T08:16:41.758Z,100315.13
2023-01-07T08:21:43.863Z,100313.75
2023-01-07T08:26:45.943Z,100317.03
2023-01-07T08:31:48.110Z,100308.03
2023-01-07T08:36:50.745Z,100311.22
2023-01-07T08:41:52.814Z,100324.75
2023-01-07T08:46:55.124Z,100321.84
2023-01-07T08:51:57.464Z,100310.31
2023-01-07T08:56:59.620Z,100316.00
2023-01-07T09:02:01.888Z,100308.75
2023-01-07T09:07:04.051Z,100303.53
2023-01-07T09:12:10.026Z,100297.88
2023-01-07T09:17:13.197Z,100300.50
2023-01-07T09:22:15.692Z,100289.69
2023-01-07T09:27:18.141Z,100287.00
2023-01-07T09:32:21.404Z,100286.50
2023-01-07T09:37:23.712Z,100283.91
2023-01-07T09:42:43.350Z,100276.72
2023-01-07T09:47:48.257Z,100270.59
2023-01-07T09:52:52.485Z,100266.88
2023-01-07T09:57:54.945Z,100281.53
2023-01-07T10:03:41.755Z,100268.31
2023-01-07T10:08:56.079Z,100261.88
2023-01-07T10:14:03.183Z,100263.34
2023-01-07T10:19:22.530Z,100253.19
2023-01-07T10:24:32.314Z,100240.00
2023-01-07T10:29:36.630Z,100228.06
2023-01-07T10:34:45.021Z,100222.69
2023-01-07T10:40:13.199Z,100221.47
2023-01-07T10:45:25.264Z,100206.72
2023-01-07T10:50:33.467Z,100208.56
2023-01-07T10:55:52.144Z,100187.97
2023-01-07T11:00:54.426Z,100175.31
2023-01-07T11:06:00.138Z,100161.81
2023-01-07T11:11:03.793Z,100150.97
2023-01-07T11:16:26.549Z,100136.59
2023-01-07T11:21:42.879Z,100123.16
2023-01-07T11:26:46.637Z,100094.84
2023-01-07T11:31:53.269Z,100086.28
2023-01-07T11:36:55.668Z,100083.31
2023-01-07T11:42:23.562Z,100078.13
2023-01-07T11:47:25.803Z,100078.25
2023-01-07T11:52:28.342Z,100049.91
2023-01-07T11:57:30.541Z,100046.53
2023-01-07T12:02:32.998Z,100030.88
2023-01-07T12:07:35.376Z,100012.88
2023-01-07T12:12:43.172Z,99999.50
2023-01-07T12:17:50.848Z,99997.13
2023-01-07T12:23:13.011Z,99980.28
2023-01-07T12:28:18.146Z,99972.47
2023-01-07T12:33:31.242Z,99976.59
2023-01-07T12:38:51.898Z,99963.06
2023-01-07T12:44:00.014Z,99939.00
2023-01-07T12:49:36.315Z,99931.91
2023-01-07T12:55:17.540Z,99926.78
2023-01-07T13:00:25.169Z,99924.84
2023-01-07T13:05:37.796Z,99924.47
2023-01-07T13:10:42.426Z,99916.38
2023-01-07T13:15:44.681Z,99913.69
2023-01-07T13:21:12.448Z,99902.81
2023-01-07T13:26:27.013Z,99894.09
2023-01-07T13:31:53.704Z,99893.41
2023-01-07T13:37:11.353Z,99884.56
2023-01-07T13:42:25.201Z,99873.19
2023-01-07T13:47:43.050Z,99866.66
2023-01-07T13:52:55.802Z,99865.28
2023-01-07T13:57:58.250Z,99846.91
2023-01-07T14:03:01.371Z,99864.06
2023-01-07T14:08:04.095Z,99854.19
2023-01-07T14:13:35.585Z,99853.78
2023-01-07T14:19:03.645Z,99838.06
2023-01-07T14:24:33.860Z,99824.84
2023-01-07T14:29:42.253Z,99815.94
2023-01-07T14:34:54.193Z,99811.47
2023-01-07T14:39:57.068Z,99806.75
2023-01-07T14:45:01.421Z,99806.88
2023-01-07T14:50:28.740Z,99794.81
2023-01-07T14:55:37.466Z,99778.78
2023-01-07T15:01:04.638Z,99799.00
2023-01-07T15:06:26.659Z,99793.91
2023-01-07T15:11:49.067Z,99788.06
2023-01-07T15:16:52.090Z,99778.41
2023-01-07T15:21:54.459Z,99779.94
2023-01-07T15:27:12.291Z,99760.63
2023-01-07T15:32:41.996Z,99755.16
2023-01-07T15:38:05.222Z,99758.97
2023-01-07T15:43:22.569Z,99748.22
2023-01-07T15:48:24.843Z,99743.34
2023-01-07T15:53:29.150Z,99743.72
2023-01-07T15:58:48.827Z,99748.69
2023-01-07T16:03:56.057Z,99739.25
2023-01-07T16:08:58.715Z,99736.06
2023-01-07T16:14:02.712Z,99729.34
2023-01-07T16:19:04.881Z,99717.78
2023-01-07T16:24:07.596Z,99709.41
2023-01-07T16:29:20.134Z,99708.38
2023-01-07T16:34:25.215Z,99706.22
2023-01-07T16:39:29.723Z,99700.75
2023-01-07T16:44:49.445Z,99701.38
2023-01-07T16:50:11.207Z,99703.28
2023-01-07T16:55:45.870Z,99699.09
2023-01-07T17:00:49.339Z,99684.66
2023-01-07T17:06:06.606Z,99677.63
2023-01-07T17:11:20.518Z,99674.22
2023-01-07T17:16:28.013Z,99657.31
2023-01-07T17:21:41.127Z,99659.34
2023-01-07T17:26:43.508Z,99658.75
2023-01-07T17:31:46.645Z,99648.88
2023-01-07T17:36:48.990Z,99652.56
2023-01-07T17:42:09.716Z,99647.16
2023-01-07T17:47:14.056Z,99649.38
2023-01-07T17:52:17.138Z,99647.97
2023-01-07T17:57:19.658Z,99651.66
2023-01-07T18:02:26.172Z,99647.97
2023-01-07T18:07:28.390Z,99639.34
2023-01-07T18:12:30.488Z,99644.00
2023-01-07T18:17:33.859Z,99637.44
2023-01-07T18:22:36.000Z,99626.88
2023-01-07T18:27:38.348Z,99627.56
2023-01-07T18:32:40.644Z,99631.41
2023-01-07T18:37:43.182Z,99631.81
2023-01-07T18:42:45.655Z,99603.38
2023-01-07T18:47:47.862Z,99603.84
2023-01-07T18:52:50.197Z,99588.13
2023-01-07T18:57:52.487Z,99562.31
2023-01-07T19:02:54.771Z,99561.75
2023-01-07T19:07:57.323Z,99546.91
2023-01-07T19:12:59.470Z,99527.63
2023-01-07T19:18:01.548Z,99534.91
2023-01-07T19:23:03.661Z,99541.03
2023-01-07T19:28:05.994Z,99529.72
2023-01-07T19:33:08.415Z,99527.78
2023-01-07T19:38:12.764Z,99530.31
2023-01-07T19:43:14.799Z,99525.06
2023-01-07T19:48:16.884Z,99532.91
2023-01-07T19:53:19.182Z,99527.88
2023-01-07T19:58:21.624Z,99501.28
2023-01-07T20:03:23.807Z,99512.31
2023-01-07T20:08:26.148Z,99515.94
2023-01-07T20:13:29.850Z,99519.44
2023-01-07T20:18:35.880Z,99516.25
2023-01-07T20:23:39.519Z,99518.63
2023-01-07T20:28:42.836Z,99532.19
2023-01-07T20:33:45.465Z,99516.25
2023-01-07T20:38:48.149Z,99525.38
2023-01-07T20:44:01.098Z,99527.13
2023-01-07T20:49:03.407Z,99537.41
2023-01-07T20:54:05.729Z,99524.75
2023-01-07T20:59:08.772Z,99516.78
2023-01-07T21:04:12.288Z,99523.53
2023-01-07T21:09:15.317Z,99528.47
2023-01-07T21:14:17.597Z,99523.81
2023-01-07T21:19:21.036Z,99512.66
2023-01-07T21:24:23.353Z,99515.22
2023-01-07T21:29:25.599Z,99518.34
2023-01-07T21:34:27.699Z,99517.34
2023-01-07T21:39:30.005Z,99503.97
2023-01-07T21:44:33.769Z,99506.88
2023-01-07T21:49:35.962Z,99485.28
2023-01-07T21:54:38.500Z,99509.22
2023-01-07T21:59:40.840Z,99494.34
2023-01-07T22:04:43.409Z,99499.47
2023-01-07T22:09:45.916Z,99491.97
2023-01-07T22:14:48.254Z,99490.19
2023-01-07T22:19:50.424Z,99480.63
2023-01-07T22:24:52.751Z,99494.91
2023-01-07T22:29:56.068Z,99493.06
2023-01-07T22:34:58.206Z,99493.50
2023-01-07T22:40:02.479Z,99494.59
2023-01-07T22:45:17.239Z,99503.41
2023-01-07T22:50:19.557Z,99500.50
2023-01-07T22:55:21.918Z,99498.06
2023-01-07T23:00:52.385Z,99477.59
2023-01-07T23:05:54.524Z,99482.75
2023-01-07T23:10:56.679Z,99479.09
2023-01-07T23:16:03.350Z,99468.66
2023-01-07T23:21:05.932Z,99453.72
2023-01-07T23:26:08.427Z,99453.84
2023-01-07T23:31:11.296Z,99441.91
2023-01-07T23:36:13.850Z,99431.88
2023-01-07T23:41:16.159Z,99437.09
2023-01-07T23:46:18.342Z,99445.00
2023-01-07T23:51:21.453Z,99445.06
2023-01-07T23:56:23.741Z,99435.69
